Time;durP1;ratioP1;P1;durP2;ratioP2;P2;SDS_P1;SDS_P2;PMS_P1;PMS_P2;Temp;Humidity;BMP_temperature;BMP_pressure;BME280_temperature;BME280_humidity;BME280_pressure;Samples;Min_cycle;Max_cycle;Signal;HPM_P1;HPM_P2
2022/07/11 06:32:13;;;;;;;;;6.25;5.00;;;;;19.46;58.84;102056.56;5063826;28;49615;-72
2022/07/11 06:34:38;;;;;;;;;5.00;3.50;;;;;20.06;58.45;102131.44;5066244;28;49628;-71
2022/07/11 06:37:04;;;;;;;;;4.75;3.75;;;;;20.19;57.67;102128.84;5053842;28;49751;-72
2022/07/11 06:39:29;;;;;;;;;5.50;2.50;;;;;20.36;56.97;102114.63;5051061;28;50420;-73
2022/07/11 06:41:55;;;;;;;;;3.25;3.25;;;;;20.57;57.22;102107.59;5046589;28;49425;-74
2022/07/11 06:44:21;;;;;;;;;6.00;5.75;;;;;20.86;56.11;102120.97;5053342;27;49867;-71
2022/07/11 06:46:46;;;;;;;;;7.25;5.00;;;;;20.96;55.67;102119.19;5043286;28;49906;-69
2022/07/11 06:49:13;;;;;;;;;3.00;3.00;;;;;21.12;54.92;102120.91;5040823;28;52359;-70
2022/07/11 06:51:39;;;;;;;;;6.25;5.00;;;;;21.23;54.78;102120.00;5067240;27;49843;-71
2022/07/11 06:54:05;;;;;;;;;2.50;2.50;;;;;21.36;54.39;102111.13;5045857;28;49858;-70
2022/07/11 06:56:30;;;;;;;;;4.00;4.00;;;;;21.50;53.88;102111.09;5049718;28;49761;-72
2022/07/11 06:58:55;;;;;;;;;3.75;3.75;;;;;21.67;53.87;102118.16;5048123;28;50642;-71
2022/07/11 07:01:21;;;;;;;;;4.50;4.25;;;;;21.87;52.80;102117.19;5066620;28;49801;-72
2022/07/11 07:03:46;;;;;;;;;5.75;4.00;;;;;21.94;53.09;102113.59;5066602;28;49945;-71
2022/07/11 07:06:12;;;;;;;;;2.75;2.75;;;;;22.00;52.60;102121.56;5066522;28;49604;-71
2022/07/11 07:08:37;;;;;;;;;3.75;3.25;;;;;22.11;51.94;102114.44;5063323;28;50188;-71
2022/07/11 07:11:03;;;;;;;;;5.50;4.00;;;;;22.23;51.49;102113.47;5046223;28;49765;-72
2022/07/11 07:13:29;;;;;;;;;3.00;3.00;;;;;22.16;51.62;102077.84;5046046;28;49823;-71
2022/07/11 07:15:55;;;;;;;;;5.00;4.75;;;;;22.36;51.09;102120.53;5046169;28;49963;-71
2022/07/11 07:18:20;;;;;;;;;5.75;3.50;;;;;22.39;51.13;102116.94;5045779;28;49815;-70
2022/07/11 07:20:47;;;;;;;;;4.75;3.50;;;;;22.36;50.90;102106.25;5045904;28;49940;-70
2022/07/11 07:23:13;;;;;;;;;7.00;4.50;;;;;22.48;50.80;102123.09;5045901;28;49799;-70
2022/07/11 07:25:38;;;;;;;;;6.00;4.50;;;;;22.38;50.71;102099.09;5046170;28;49733;-72
2022/07/11 07:28:04;;;;;;;;;5.00;2.50;;;;;22.57;50.62;102111.44;5043715;28;49673;-72
2022/07/11 07:30:30;;;;;;;;;8.25;5.75;;;;;22.65;50.79;102114.97;5050631;27;49802;-71
2022/07/11 07:32:55;;;;;;;;;6.75;6.00;;;;;22.74;50.80;102128.28;5045965;28;49737;-70
2022/07/11 07:35:20;;;;;;;;;5.75;4.50;;;;;22.76;50.55;102104.16;5045939;28;49782;-69
2022/07/11 07:37:46;;;;;;;;;5.50;5.50;;;;;22.84;50.55;102113.94;5044549;28;50405;-70
2022/07/11 07:40:11;;;;;;;;;5.25;5.25;;;;;22.85;50.30;102118.41;5044450;28;50115;-69
2022/07/11 07:42:37;;;;;;;;;5.00;4.25;;;;;22.94;50.23;102119.22;5035614;28;49630;-69
2022/07/11 07:45:02;;;;;;;;;4.00;3.25;;;;;22.88;49.73;102113.94;5079745;27;49852;-69
2022/07/11 07:47:29;;;;;;;;;2.00;2.00;;;;;22.92;48.49;102126.38;5030883;27;50626;-70
2022/07/11 07:49:55;;;;;;;;;5.00;4.00;;;;;22.87;48.68;102115.69;5045343;27;49752;-69
2022/07/11 07:52:20;;;;;;;;;3.25;3.25;;;;;22.87;49.11;102121.06;5057004;27;49709;-69
2022/07/11 19:12:45;;;;;;;;;0.50;0.50;;;;;27.63;33.34;101822.81;5103775;27;1287013;-70
2022/07/11 19:15:11;;;;;;;;;0.00;0.00;;;;;27.81;33.10;101833.03;5132324;27;49578;-69
2022/07/11 19:17:36;;;;;;;;;1.00;1.00;;;;;27.93;33.13;101842.50;5113610;27;49911;-67
2022/07/11 19:20:02;;;;;;;;;1.00;1.00;;;;;27.93;32.84;101834.41;5131914;27;50164;-72
2022/07/11 19:22:29;;;;;;;;;1.75;0.50;;;;;27.86;32.84;101820.25;5132177;27;49653;-68
2022/07/11 19:24:55;;;;;;;;;1.00;1.00;;;;;28.05;32.85;101849.28;5132082;27;49900;-65
2022/07/11 19:27:20;;;;;;;;;0.50;0.50;;;;;27.97;32.76;101833.34;5131926;27;49995;-73
2022/07/11 19:29:45;;;;;;;;;2.00;1.00;;;;;27.98;32.58;101845.03;5131962;27;50992;-72
2022/07/11 19:32:11;;;;;;;;;2.00;2.00;;;;;28.03;32.40;101851.16;5131708;27;49829;-69
2022/07/11 19:34:36;;;;;;;;;2.00;2.00;;;;;28.01;32.69;101853.06;5131944;27;50572;-67
2022/07/11 19:37:02;;;;;;;;;2.25;2.25;;;;;27.90;32.87;101832.72;5132035;27;49821;-68
2022/07/11 19:39:27;;;;;;;;;2.00;2.00;;;;;27.90;32.24;101835.41;5131632;27;50978;-67
2022/07/11 19:41:53;;;;;;;;;1.00;1.00;;;;;27.77;33.04;101814.28;5131584;27;49700;-73
2022/07/11 19:44:19;;;;;;;;;1.00;1.00;;;;;27.70;32.88;101821.72;5132067;27;49805;-68
2022/07/11 19:46:44;;;;;;;;;2.00;2.00;;;;;27.78;32.77;101843.03;5131897;27;50117;-69
2022/07/11 19:49:10;;;;;;;;;1.00;1.00;;;;;27.85;33.14;101861.66;5131422;27;49820;-71
2022/07/11 19:51:36;;;;;;;;;2.00;2.00;;;;;27.82;32.68;101864.47;5131393;27;51681;-76
2022/07/11 19:54:01;;;;;;;;;2.00;2.00;;;;;27.71;32.62;101861.25;5131789;27;49653;-69
2022/07/11 19:59:30;;;;;;;;;5.00;1.75;;;;;27.63;33.11;101869.56;5131156;27;50094;-74
2022/07/11 20:01:55;;;;;;;;;2.00;2.00;;;;;27.60;33.39;101855.25;5131498;27;49689;-72
2022/07/11 20:04:21;;;;;;;;;2.00;2.00;;;;;27.57;33.22;101868.84;5131471;27;49826;-68
2022/07/11 20:06:46;;;;;;;;;2.00;1.50;;;;;27.18;33.15;101809.88;5131613;27;49889;-74
2022/07/11 20:09:11;;;;;;;;;1.25;1.00;;;;;27.33;33.22;101851.66;5131195;27;50669;-75
2022/07/11 20:11:37;;;;;;;;;1.50;1.50;;;;;27.36;33.07;101859.66;5130603;27;50072;-70
2022/07/11 20:14:02;;;;;;;;;2.25;1.25;;;;;27.45;33.28;101883.63;5131412;27;49755;-73
2022/07/11 20:16:28;;;;;;;;;2.00;2.00;;;;;27.08;33.41;101828.16;5131421;27;49640;-73
2022/07/11 20:18:53;;;;;;;;;3.25;1.25;;;;;27.41;33.92;101886.44;5130886;27;50281;-75
2022/07/11 20:21:19;;;;;;;;;1.50;1.50;;;;;27.27;33.62;101882.38;5130963;27;49767;-73
2022/07/11 20:23:44;;;;;;;;;1.00;1.00;;;;;27.34;34.05;101905.53;5101264;27;49873;-69
2022/07/11 20:26:09;;;;;;;;;2.00;2.00;;;;;27.03;33.54;101867.88;5117280;27;49997;-70
2022/07/11 20:28:35;;;;;;;;;1.00;1.00;;;;;27.24;33.78;101909.44;5116762;27;49789;-69
2022/07/11 20:31:01;;;;;;;;;2.75;2.25;;;;;26.93;33.91;101852.00;5117018;27;49742;-77
2022/07/11 20:33:26;;;;;;;;;1.75;1.75;;;;;27.01;33.72;101885.81;5117023;27;49664;-69
2022/07/11 20:35:51;;;;;;;;;1.00;1.00;;;;;26.94;34.22;101886.97;5117320;27;49687;-70
2022/07/11 20:38:17;;;;;;;;;2.75;1.75;;;;;27.05;34.48;101916.31;5097536;27;50986;-69
2022/07/11 20:40:42;;;;;;;;;0.00;0.00;;;;;27.04;34.17;101919.94;5117021;27;50163;-75
2022/07/11 20:43:07;;;;;;;;;2.50;1.00;;;;;27.03;34.37;101926.28;5116587;27;49783;-71
2022/07/11 20:45:33;;;;;;;;;1.00;1.00;;;;;26.88;34.84;101907.81;5117206;27;49789;-75
2022/07/11 21:00:29;;;;;;;;;3.00;3.00;;;;;26.13;36.99;101910.69;5129329;27;49674;-76
2022/07/11 21:02:55;;;;;;;;;3.25;3.00;;;;;26.08;36.90;101896.50;5109803;27;49847;-75
2022/07/11 21:05:20;;;;;;;;;2.00;2.00;;;;;26.24;37.26;101930.13;5111596;27;49523;-73
2022/07/11 21:07:46;;;;;;;;;1.00;1.00;;;;;25.57;37.35;101818.81;5109658;27;51811;-75
2022/07/11 21:10:11;;;;;;;;;1.25;1.25;;;;;25.83;37.27;101842.41;5111049;27;49624;-74
2022/07/11 21:12:36;;;;;;;;;0.50;0.50;;;;;25.51;37.48;101796.59;5111068;27;49705;-73
2022/07/11 21:15:02;;;;;;;;;3.00;2.00;;;;;25.59;37.61;101827.75;5111483;27;49845;-75
2022/07/11 21:17:27;;;;;;;;;3.00;3.00;;;;;25.98;37.75;101897.66;5110995;27;49796;-74
2022/07/11 21:19:52;;;;;;;;;3.00;2.75;;;;;25.90;37.79;101872.75;5111153;27;49757;-73
2022/07/11 21:22:18;;;;;;;;;2.50;1.75;;;;;26.33;38.11;101939.78;5110970;27;50140;-75
2022/07/11 21:24:43;;;;;;;;;1.50;1.00;;;;;26.28;37.99;101951.63;5111275;27;49612;-74
2022/07/11 21:27:08;;;;;;;;;2.00;2.00;;;;;25.67;38.27;101866.09;5110767;27;49939;-75
2022/07/11 21:29:34;;;;;;;;;2.25;2.00;;;;;25.47;38.43;101841.47;5111033;27;49699;-75
2022/07/11 21:31:59;;;;;;;;;2.50;1.75;;;;;26.20;38.50;101957.19;5111001;27;49808;-76
2022/07/11 21:34:24;;;;;;;;;3.50;2.50;;;;;25.59;38.25;101864.53;5111114;27;49864;-74
2022/07/11 21:36:50;;;;;;;;;3.00;2.75;;;;;25.69;38.62;101888.47;5110738;27;50664;-75
2022/07/11 21:39:15;;;;;;;;;2.75;2.00;;;;;25.32;38.50;101836.47;5110786;27;49815;-74
2022/07/11 21:41:41;;;;;;;;;3.00;1.75;;;;;25.52;39.07;101866.47;5110559;27;50109;-76
2022/07/11 21:44:06;;;;;;;;;1.00;1.00;;;;;25.92;39.49;101938.16;5111032;27;49596;-76
2022/07/11 21:46:32;;;;;;;;;3.50;3.00;;;;;25.90;39.26;101967.78;5109310;27;50430;-76
2022/07/11 21:48:57;;;;;;;;;2.00;2.00;;;;;24.91;39.26;101786.34;5110730;27;49660;-76
2022/07/11 21:51:22;;;;;;;;;4.00;3.00;;;;;24.84;39.59;101799.91;5110427;27;50226;-76
2022/07/11 21:53:48;;;;;;;;;3.00;2.00;;;;;25.93;40.26;101997.28;5111036;27;49773;-74
2022/07/11 21:56:13;;;;;;;;;0.50;0.50;;;;;25.43;40.38;101916.88;5110145;27;50461;-75
2022/07/11 21:58:38;;;;;;;;;1.50;1.50;;;;;25.84;40.54;101985.84;5110342;27;49833;-75
2022/07/11 22:01:04;;;;;;;;;3.50;3.00;;;;;25.05;40.59;101871.09;5110636;27;50172;-75
2022/07/11 22:03:29;;;;;;;;;3.00;2.00;;;;;25.63;40.96;101971.06;5110728;27;49504;-76
2022/07/11 22:05:55;;;;;;;;;2.75;2.75;;;;;24.99;41.39;101873.88;5110214;27;50359;-74
2022/07/11 22:08:24;;;;;;;;;2.00;2.00;;;;;25.50;41.36;101962.41;5110433;27;49564;-74
2022/07/11 22:10:49;;;;;;;;;2.50;2.50;;;;;25.55;41.32;101975.72;5102591;27;49707;-74
2022/07/11 22:13:15;;;;;;;;;1.25;1.25;;;;;25.38;42.18;101974.31;5096531;27;49570;-74
2022/07/11 22:15:40;;;;;;;;;2.50;1.75;;;;;25.37;42.29;101988.66;5096293;27;50257;-74
2022/07/11 22:18:05;;;;;;;;;3.25;3.25;;;;;25.17;42.44;101945.19;5096412;27;49720;-73
2022/07/11 22:20:31;;;;;;;;;2.00;2.00;;;;;24.90;42.99;101918.84;5096380;27;49708;-75
2022/07/11 22:22:56;;;;;;;;;1.75;1.50;;;;;24.69;42.99;101880.78;5096714;27;49774;-74
2022/07/11 22:25:21;;;;;;;;;3.00;3.00;;;;;24.40;43.34;101819.59;5094820;27;52659;-75
2022/07/11 22:27:47;;;;;;;;;4.50;3.75;;;;;24.32;43.83;101839.44;5096232;27;49710;-75
2022/07/11 22:30:12;;;;;;;;;4.00;2.75;;;;;24.60;43.86;101890.81;5096364;27;50171;-75
2022/07/11 22:32:37;;;;;;;;;3.75;2.75;;;;;25.32;44.24;102006.69;5096406;27;49853;-75
2022/07/11 22:35:03;;;;;;;;;5.00;2.00;;;;;24.44;44.39;101858.91;5095774;27;50549;-74
2022/07/11 22:37:28;;;;;;;;;4.00;3.00;;;;;24.30;44.84;101866.28;5096156;27;49553;-74
2022/07/11 22:39:57;;;;;;;;;4.50;4.00;;;;;24.19;45.11;101845.03;5096141;27;49680;-76
2022/07/11 22:42:22;;;;;;;;;2.50;2.50;;;;;25.11;45.76;101982.94;5095951;27;49968;-75
2022/07/11 22:44:48;;;;;;;;;3.75;3.75;;;;;24.59;45.36;101932.00;5095758;27;51015;-73
2022/07/11 22:47:13;;;;;;;;;3.75;3.00;;;;;24.39;45.80;101876.00;5095982;27;49792;-73
2022/07/11 22:49:39;;;;;;;;;3.00;3.00;;;;;24.79;45.68;101941.44;5095845;27;49672;-75
2022/07/11 22:52:04;;;;;;;;;2.00;2.00;;;;;25.03;46.02;101992.97;5096423;27;49692;-74
2022/07/11 22:54:31;;;;;;;;;3.00;3.00;;;;;23.99;46.00;101844.50;5095810;27;50959;-74
2022/07/11 22:56:57;;;;;;;;;3.00;2.50;;;;;24.84;47.22;102003.13;5095701;27;49805;-73
2022/07/11 22:59:22;;;;;;;;;3.25;3.25;;;;;24.99;46.63;102012.69;5095616;27;49884;-75
2022/07/11 23:01:47;;;;;;;;;3.50;3.50;;;;;24.34;46.45;101892.22;5096117;27;49533;-74
2022/07/11 23:04:13;;;;;;;;;3.25;3.25;;;;;23.95;46.77;101821.34;5095621;27;50504;-77
2022/07/11 23:06:38;;;;;;;;;5.25;5.00;;;;;24.82;46.78;101978.13;5095717;27;49763;-74
2022/07/11 23:09:03;;;;;;;;;3.00;3.00;;;;;24.41;47.14;101925.16;5095934;27;49741;-75
2022/07/11 23:11:29;;;;;;;;;3.00;2.25;;;;;24.31;47.49;101923.53;5095658;27;49559;-74
2022/07/11 23:13:54;;;;;;;;;4.50;4.00;;;;;24.80;47.75;102009.47;5095465;27;50842;-74
2022/07/11 23:16:19;;;;;;;;;2.75;1.75;;;;;24.80;47.44;102002.31;5095622;27;49689;-74
2022/07/11 23:18:45;;;;;;;;;4.00;4.00;;;;;24.79;48.13;102005.88;5095309;27;49806;-74
2022/07/11 23:21:10;;;;;;;;;2.25;2.25;;;;;24.16;48.04;101903.22;5095560;27;49728;-74
2022/07/11 23:23:35;;;;;;;;;6.75;4.00;;;;;23.82;48.31;101857.31;5094266;27;49861;-73
2022/07/11 23:26:01;;;;;;;;;3.00;3.00;;;;;23.68;48.32;101817.34;5095549;27;49726;-73
2022/07/11 23:28:26;;;;;;;;;2.50;2.50;;;;;23.79;48.13;101852.00;5095238;27;49834;-75
2022/07/11 23:30:51;;;;;;;;;4.75;4.75;;;;;24.71;48.48;102007.84;5095537;27;49951;-74
2022/07/11 23:33:16;;;;;;;;;5.50;5.00;;;;;24.68;48.37;102009.69;5094968;27;50547;-72
2022/07/11 23:35:42;;;;;;;;;2.00;2.00;;;;;24.63;48.65;102008.91;5095251;27;49646;-73
2022/07/11 23:38:07;;;;;;;;;4.25;3.00;;;;;23.73;48.55;101857.47;5095350;27;49808;-74
2022/07/11 23:40:33;;;;;;;;;4.00;3.00;;;;;24.56;49.11;102016.16;5095277;27;49893;-74
2022/07/11 23:42:59;;;;;;;;;3.25;3.25;;;;;24.47;48.90;102019.00;5094812;27;50823;-74
2022/07/11 23:45:24;;;;;;;;;3.75;3.50;;;;;24.57;48.89;102017.94;5094961;27;49722;-75
2022/07/11 23:47:49;;;;;;;;;4.00;4.00;;;;;23.51;48.84;101856.88;5094944;27;49593;-75
2022/07/11 23:50:15;;;;;;;;;3.75;2.75;;;;;24.57;48.99;102019.75;5095222;27;49900;-74
2022/07/11 23:52:40;;;;;;;;;3.75;3.75;;;;;24.32;49.10;101992.41;5094784;27;49845;-75
2022/07/11 23:55:06;;;;;;;;;3.50;3.50;;;;;23.89;49.45;101918.88;5094992;27;49916;-74
2022/07/11 23:57:32;;;;;;;;;3.00;3.00;;;;;24.46;49.57;102027.97;5094599;27;49763;-74
2022/07/11 23:59:58;;;;;;;;;4.00;4.00;;;;;24.37;50.00;102018.28;5094719;27;49518;-75
